Seago Piraeus — OXVD2 — position and weather

sailwx.info

Track history (hours):
 
Tides and Currents Weather Stations Pressure Air Temp Water Temp Dewpoint Dewpoint Depression Visibility Wind Speed Wind Dir Waves Ship Positions

Seago Piraeus

Last reported at 2015-Jul-02 10:24 UTC. Time now 2015-Jul-02 12:28 UTC.
Position N 40°29' E 028°23'.

Length 294 m; draft 11.8 m.

Type: Ship (hazmat cat A). MMSI: 219117000.

Date/timePositionNaut miles runAvg speedWind from/ knotsBaromVisibWave heightAir tempDewpointWater temp
2015-Jul-02 10:24N 40°29' E 028°23'1112.6
2015-Jul-02 09:33N 40°27' E 028°37'1711.7
2015-Jul-02 08:05N 40°25' E 028°60'4 0.2
2015-Jul-01 15:33N 40°25' E 029°04'1 1.2
2015-Jul-01 14:33N 40°25' E 029°03'1 1.1
2015-Jul-01 13:32N 40°25' E 029°01'12 8.5
2015-Jul-01 12:06N 40°29' E 028°46'611.2
2015-Jul-01 11:32N 40°35' E 028°43'1712.6
2015-Jul-01 10:11N 40°52' E 028°40'6 9.1
2015-Jul-01 09:33N 40°58' E 028°41'0 0.2
2015-Jul-01 08:09N 40°58' E 028°41'0 0.0
2015-Jul-01 06:29N 40°58' E 028°41'0 0.0
2015-Jul-01 03:32N 40°58' E 028°41'0 0.0
2015-Jul-01 02:33N 40°58' E 028°41'0 0.0
2015-Jun-30 22:18N 40°58' E 028°41'0 0.0
2015-Jun-30 21:33N 40°58' E 028°41'0 0.0
2015-Jun-30 20:13N 40°58' E 028°41'0 0.0
2015-Jun-30 19:26N 40°58' E 028°41'3 2.7
2015-Jun-30 18:29N 40°55' E 028°41'1010.6
2015-Jun-30 17:33N 40°46' E 028°45'1212.2
2015-Jun-30 16:32N 40°45' E 029°02'1212.4
2015-Jun-30 15:33N 40°45' E 029°18'1211.0
2015-Jun-30 14:25N 40°45' E 029°34'5 0.2
2015-Jun-29 12:21N 40°45' E 029°41'1113.3
2015-Jun-29 11:33N 40°44' E 029°27'1110.8
2015-Jun-29 10:33N 40°44' E 029°12'1312.6
2015-Jun-29 09:33N 40°44' E 028°56'1212.0
2015-Jun-29 08:32N 40°44' E 028°40'1212.3
2015-Jun-29 07:33N 40°44' E 028°24'28510.9
2015-Jun-28 05:26N 37°38' E 023°45'1112.5
2015-Jun-28 04:33N 37°48' E 023°38'10 9.5
2015-Jun-28 03:33N 37°57' E 023°36'0 0.0
2015-Jun-28 02:31N 37°57' E 023°36'0 0.0
2015-Jun-28 01:31N 37°57' E 023°36'0 0.0
2015-Jun-28 00:31N 37°57' E 023°36'0 0.0
2015-Jun-27 23:31N 37°57' E 023°36'0 0.0
2015-Jun-27 22:31N 37°57' E 023°36'0 0.0
2015-Jun-27 21:28N 37°57' E 023°36'0 0.0
2015-Jun-27 20:31N 37°57' E 023°36'0 0.4
2015-Jun-27 19:34N 37°57' E 023°36'8 7.9
2015-Jun-27 18:33N 37°50' E 023°40'1312.9
2015-Jun-27 17:33N 37°37' E 023°45'1413.5
2015-Jun-27 16:33N 37°24' E 023°41'42311.7
2015-Jun-26 04:19N 36°29' E 014°56'1013.3
2015-Jun-26 03:33N 36°29' E 014°44'1313.4
2015-Jun-26 02:33N 36°32' E 014°27'1313.4
2015-Jun-26 01:33N 36°35' E 014°11'1413.9
2015-Jun-26 00:34N 36°40' E 013°55'1414.1
2015-Jun-25 23:34N 36°44' E 013°38'3314.0
2015-Jun-25 21:11N 36°54' E 012°59'3613.6
2015-Jun-25 18:33N 37°04' E 012°16'1313.4
2015-Jun-25 17:33N 37°08' E 011°60'1313.3
2015-Jun-25 16:33N 37°12' E 011°44'1413.4
2015-Jun-25 15:30N 37°17' E 011°27'1212.9
2015-Jun-25 14:33N 37°21' E 011°13'1313.1
2015-Jun-25 13:33N 37°25' E 010°57'1413.7
2015-Jun-25 12:33N 37°29' E 010°40'1513.9
2015-Jun-25 11:27N 37°33' E 010°22'9413.2
2015-Jun-25 04:19N 37°54' E 008°25'1012.2
2015-Jun-25 03:28N 37°57' E 008°13'612.9
2015-Jun-25 03:00N 37°54' E 008°06'5813.1 120 / 81017.6 5.4 22.821.023.0
2015-Jun-24 22:33N 38°12' E 006°56'17713.5
2015-Jun-24 09:28N 38°53' E 003°16'1213.2
2015-Jun-24 08:33N 38°56' E 003°00'1313.0
2015-Jun-24 07:33N 38°59' E 002°44'1313.1
2015-Jun-24 06:33N 39°02' E 002°28'1313.3
2015-Jun-24 05:33N 39°06' E 002°11'1413.3
2015-Jun-24 04:32N 39°09' E 001°54'1313.1
2015-Jun-24 03:33N 39°12' E 001°38'1312.8
2015-Jun-24 02:33N 39°14' E 001°22'1313.0
2015-Jun-24 01:33N 39°16' E 001°05'5813.0
2015-Jun-23 21:06N 39°24' W 000°09'712.7
2015-Jun-23 20:33N 39°26' W 000°18'1 1.2
2015-Jun-23 19:31N 39°26' W 000°20'0 0.0
2015-Jun-23 19:05N 39°26' W 000°20'157 6.7
2015-Jun-22 19:33N 36°57' W 001°21'1413.9
2015-Jun-22 18:33N 36°48' W 001°34'1413.6
2015-Jun-22 17:33N 36°39' W 001°47'1313.1
2015-Jun-22 16:33N 36°30' W 001°58'1312.8
2015-Jun-22 15:33N 36°22' W 002°11'1312.9
2015-Jun-22 14:34N 36°19' W 002°27'1413.7
2015-Jun-22 13:33N 36°17' W 002°44'1313.4
2015-Jun-22 12:33N 36°15' W 002°60'1414.0
2015-Jun-22 11:34N 36°14' W 003°17'  
Track history (hours):
 
Tides and Currents Weather Stations Pressure Air Temp Water Temp Dewpoint Dewpoint Depression Visibility Wind Speed Wind Dir Waves Ship Positions

Seago Piraeus

Last reported at 2015-Jul-02 10:24 UTC. Time now 2015-Jul-02 12:28 UTC.
Position N 40°29' E 028°23'.

Length 294 m; draft 11.8 m.

Type: Ship (hazmat cat A). MMSI: 219117000.

Date/timePositionNaut miles runAvg speedWind from/ knotsBaromVisibWave heightAir tempDewpointWater temp
2015-Jul-02 10:24N 40°29' E 028°23'1112.6
2015-Jul-02 09:33N 40°27' E 028°37'1711.7
2015-Jul-02 08:05N 40°25' E 028°60'4 0.2
2015-Jul-01 15:33N 40°25' E 029°04'1 1.2
2015-Jul-01 14:33N 40°25' E 029°03'1 1.1
2015-Jul-01 13:32N 40°25' E 029°01'12 8.5
2015-Jul-01 12:06N 40°29' E 028°46'611.2
2015-Jul-01 11:32N 40°35' E 028°43'1712.6
2015-Jul-01 10:11N 40°52' E 028°40'6 9.1
2015-Jul-01 09:33N 40°58' E 028°41'0 0.2
2015-Jul-01 08:09N 40°58' E 028°41'0 0.0
2015-Jul-01 06:29N 40°58' E 028°41'0 0.0
2015-Jul-01 03:32N 40°58' E 028°41'0 0.0
2015-Jul-01 02:33N 40°58' E 028°41'0 0.0
2015-Jun-30 22:18N 40°58' E 028°41'0 0.0
2015-Jun-30 21:33N 40°58' E 028°41'0 0.0
2015-Jun-30 20:13N 40°58' E 028°41'0 0.0
2015-Jun-30 19:26N 40°58' E 028°41'3 2.7
2015-Jun-30 18:29N 40°55' E 028°41'1010.6
2015-Jun-30 17:33N 40°46' E 028°45'1212.2
2015-Jun-30 16:32N 40°45' E 029°02'1212.4
2015-Jun-30 15:33N 40°45' E 029°18'1211.0
2015-Jun-30 14:25N 40°45' E 029°34'5 0.2
2015-Jun-29 12:21N 40°45' E 029°41'1113.3
2015-Jun-29 11:33N 40°44' E 029°27'1110.8
2015-Jun-29 10:33N 40°44' E 029°12'1312.6
2015-Jun-29 09:33N 40°44' E 028°56'1212.0
2015-Jun-29 08:32N 40°44' E 028°40'1212.3
2015-Jun-29 07:33N 40°44' E 028°24'28510.9
2015-Jun-28 05:26N 37°38' E 023°45'1112.5
2015-Jun-28 04:33N 37°48' E 023°38'10 9.5
2015-Jun-28 03:33N 37°57' E 023°36'0 0.0
2015-Jun-28 02:31N 37°57' E 023°36'0 0.0
2015-Jun-28 01:31N 37°57' E 023°36'0 0.0
2015-Jun-28 00:31N 37°57' E 023°36'0 0.0
2015-Jun-27 23:31N 37°57' E 023°36'0 0.0
2015-Jun-27 22:31N 37°57' E 023°36'0 0.0
2015-Jun-27 21:28N 37°57' E 023°36'0 0.0
2015-Jun-27 20:31N 37°57' E 023°36'0 0.4
2015-Jun-27 19:34N 37°57' E 023°36'8 7.9
2015-Jun-27 18:33N 37°50' E 023°40'1312.9
2015-Jun-27 17:33N 37°37' E 023°45'1413.5
2015-Jun-27 16:33N 37°24' E 023°41'42311.7
2015-Jun-26 04:19N 36°29' E 014°56'1013.3
2015-Jun-26 03:33N 36°29' E 014°44'1313.4
2015-Jun-26 02:33N 36°32' E 014°27'1313.4
2015-Jun-26 01:33N 36°35' E 014°11'1413.9
2015-Jun-26 00:34N 36°40' E 013°55'1414.1
2015-Jun-25 23:34N 36°44' E 013°38'3314.0
2015-Jun-25 21:11N 36°54' E 012°59'3613.6
2015-Jun-25 18:33N 37°04' E 012°16'1313.4
2015-Jun-25 17:33N 37°08' E 011°60'1313.3
2015-Jun-25 16:33N 37°12' E 011°44'1413.4
2015-Jun-25 15:30N 37°17' E 011°27'1212.9
2015-Jun-25 14:33N 37°21' E 011°13'1313.1
2015-Jun-25 13:33N 37°25' E 010°57'1413.7
2015-Jun-25 12:33N 37°29' E 010°40'1513.9
2015-Jun-25 11:27N 37°33' E 010°22'9413.2
2015-Jun-25 04:19N 37°54' E 008°25'1012.2
2015-Jun-25 03:28N 37°57' E 008°13'612.9
2015-Jun-25 03:00N 37°54' E 008°06'5813.1 120 / 81017.6 5.4 22.821.023.0
2015-Jun-24 22:33N 38°12' E 006°56'17713.5
2015-Jun-24 09:28N 38°53' E 003°16'1213.2
2015-Jun-24 08:33N 38°56' E 003°00'1313.0
2015-Jun-24 07:33N 38°59' E 002°44'1313.1
2015-Jun-24 06:33N 39°02' E 002°28'1313.3
2015-Jun-24 05:33N 39°06' E 002°11'1413.3
2015-Jun-24 04:32N 39°09' E 001°54'1313.1
2015-Jun-24 03:33N 39°12' E 001°38'1312.8
2015-Jun-24 02:33N 39°14' E 001°22'1313.0
2015-Jun-24 01:33N 39°16' E 001°05'5813.0
2015-Jun-23 21:06N 39°24' W 000°09'712.7
2015-Jun-23 20:33N 39°26' W 000°18'1 1.2
2015-Jun-23 19:31N 39°26' W 000°20'0 0.0
2015-Jun-23 19:05N 39°26' W 000°20'157 6.7
2015-Jun-22 19:33N 36°57' W 001°21'1413.9
2015-Jun-22 18:33N 36°48' W 001°34'1413.6
2015-Jun-22 17:33N 36°39' W 001°47'1313.1
2015-Jun-22 16:33N 36°30' W 001°58'1312.8
2015-Jun-22 15:33N 36°22' W 002°11'1312.9
2015-Jun-22 14:34N 36°19' W 002°27'1413.7
2015-Jun-22 13:33N 36°17' W 002°44'1313.4
2015-Jun-22 12:33N 36°15' W 002°60'1414.0
2015-Jun-22 11:34N 36°14' W 003°17'  

Dump ship's entire track history